Thunder radar more information blitzortung!


Radar de pluja more information rain snow radar


Visita la nostra xarxa de llocs de meteo:

Template documentation
and downloads

And another site



No particular awareness of the weather is required.    There are no Weather-warnings

Pagina Historial Weather Underground text

Diari Resum Marc 5, 2016 Unitats:  Mètric    Imperial   Tant
« Previous Dia
SegĂźent Dia »
Diari Setmana Mensual Anual Personalitzada
  Maxima: Minima: Media:
Temperatura: 16.3 °C 6.3 °C 11.5 °C
Punt de rosada: 1.7 °C -3.1 °C -1 °C
Humitat: 58 % 35 % 43 %
Wind Speed: 23.0 km/h 1.9 km/h 9.6 km/h
RĂ fegues de vent: 23.0 km/h - -
Vent:- - SW
Pression baro: 1007.0 hPa 998.9 hPa -
Precipitacions: 0.0 mm    
Historical Graphs
 
 
Dades de taula per Marc 5, 2016
Temps Temperatura Punt de rosada Pression baro Vent Wind Speed RĂ fegues de vent Humitat Rainfall Rate (Hourly)
00:00 7.6 °C -1.1 °C 999.9 hPa WSW 9.7 km/h 9.7 km/h 54 % 0.0 mm
00:10 7.3 °C -1.2 °C 999.9 hPa WSW 9.7 km/h 12.9 km/h 55 % 0.0 mm
00:20 7.1 °C -1.1 °C 998.9 hPa WSW 8.0 km/h 16.1 km/h 56 % 0.0 mm
00:30 6.9 °C -1.1 °C 998.9 hPa West 4.8 km/h 16.1 km/h 57 % 0.0 mm
00:40 6.8 °C -1.1 °C 999.9 hPa WSW 4.8 km/h 9.7 km/h 57 % 0.0 mm
00:50 6.7 °C -1.2 °C 999.9 hPa WSW 3.2 km/h 8.0 km/h 57 % 0.0 mm
01:00 6.7 °C -1.0 °C 999.9 hPa WSW 3.2 km/h 6.4 km/h 58 % 0.0 mm
01:10 6.6 °C -1.1 °C 999.9 hPa SW 9.7 km/h 11.3 km/h 58 % 0.0 mm
01:20 6.5 °C -1.2 °C 999.9 hPa WSW 4.8 km/h 6.4 km/h 58 % 0.0 mm
01:30 6.4 °C -1.3 °C 999.9 hPa West 4.8 km/h 8.0 km/h 58 % 0.0 mm
01:40 6.3 °C -1.4 °C 999.9 hPa West 3.2 km/h 9.7 km/h 58 % 0.0 mm
01:50 6.4 °C -1.3 °C 1000.9 hPa West 8.0 km/h 8.0 km/h 58 % 0.0 mm
02:00 6.5 °C -1.2 °C 1000.9 hPa West 4.8 km/h 6.4 km/h 58 % 0.0 mm
02:10 6.5 °C -1.4 °C 1001.9 hPa SW 8.0 km/h 9.7 km/h 57 % 0.0 mm
02:20 6.7 °C -1.2 °C 1001.9 hPa SW 3.2 km/h 9.7 km/h 57 % 0.0 mm
02:30 7.1 °C -0.8 °C 1001.9 hPa WSW 3.2 km/h 8.0 km/h 57 % 0.0 mm
02:40 7.2 °C -1.0 °C 1001.9 hPa SW 4.8 km/h 12.9 km/h 56 % 0.0 mm
02:50 7.3 °C -1.2 °C 1001.9 hPa SW 3.2 km/h 9.7 km/h 55 % 0.0 mm
03:00 7.6 °C -0.9 °C 1001.9 hPa West 3.2 km/h 9.7 km/h 55 % 0.0 mm
03:10 7.9 °C -0.8 °C 1001.9 hPa WSW 3.2 km/h 12.9 km/h 54 % 0.0 mm
03:20 8.1 °C -0.7 °C 1001.9 hPa WSW 4.8 km/h 9.7 km/h 54 % 0.0 mm
03:30 8.5 °C -0.6 °C 1001.9 hPa WSW 8.0 km/h 9.7 km/h 53 % 0.0 mm
03:40 8.8 °C -0.6 °C 1002.9 hPa WSW 9.7 km/h 14.5 km/h 52 % 0.0 mm
04:10 9.5 °C -0.4 °C 1002.9 hPa WSW 11.3 km/h 12.9 km/h 50 % 0.0 mm
10:24 10.2 °C -0.1 °C 1002.9 hPa WNW 5.8 km/h 5.8 km/h 49 % 0.0 mm
10:29 10.3 °C 0.1 °C 1002.9 hPa SSW 14.8 km/h 14.8 km/h 49 % 0.0 mm
10:34 10.2 °C -0.3 °C 1002.9 hPa SSW 9.5 km/h 10.0 km/h 48 % 0.0 mm
10:39 10.4 °C -0.4 °C 1002.9 hPa WSW 11.1 km/h 11.1 km/h 47 % 0.0 mm
10:44 10.5 °C -0.3 °C 1002.9 hPa NE 16.7 km/h 16.7 km/h 47 % 0.0 mm
10:49 10.8 °C -0.1 °C 1002.9 hPa WSW 16.7 km/h 16.7 km/h 47 % 0.0 mm
10:54 11.0 °C 0.1 °C 1002.9 hPa North 13.0 km/h 13.0 km/h 47 % 0.0 mm
10:59 11.0 °C -0.2 °C 1002.9 hPa ENE 15.6 km/h 15.6 km/h 46 % 0.0 mm
11:04 11.1 °C -0.1 °C 1002.9 hPa WNW 14.8 km/h 14.8 km/h 46 % 0.0 mm
11:09 11.3 °C 0.1 °C 1002.9 hPa ENE 13.0 km/h 13.0 km/h 46 % 0.0 mm
11:15 11.7 °C 0.4 °C 1002.9 hPa SSW 11.1 km/h 11.1 km/h 46 % 0.0 mm
11:27 11.8 °C 0.2 °C 1002.9 hPa SW 9.3 km/h 9.3 km/h 45 % 0.0 mm
11:32 12.1 °C 0.5 °C 1002.9 hPa SW 13.0 km/h 13.0 km/h 45 % 0.0 mm
11:37 12.4 °C 0.8 °C 1002.9 hPa WSW 9.3 km/h 9.3 km/h 45 % 0.0 mm
11:42 12.4 °C 0.8 °C 1002.9 hPa North 9.3 km/h 9.3 km/h 45 % 0.0 mm
11:47 12.3 °C 0.4 °C 1002.9 hPa WSW 13.0 km/h 13.0 km/h 44 % 0.0 mm
11:53 12.8 °C 1.2 °C 1002.9 hPa WSW 11.1 km/h 11.1 km/h 45 % 0.0 mm
11:58 12.7 °C 0.7 °C 1002.9 hPa SSW 13.0 km/h 13.0 km/h 44 % 0.0 mm
12:03 12.6 °C 0.7 °C 1002.9 hPa WNW 23.0 km/h 23.0 km/h 44 % 0.0 mm
12:49 12.6 °C 0.0 °C 1003.9 hPa ENE 9.3 km/h 9.3 km/h 42 % 0.0 mm
12:54 12.6 °C 0.3 °C 1003.9 hPa SW 9.3 km/h 9.3 km/h 43 % 0.0 mm
12:59 13.0 °C 0.7 °C 1003.9 hPa SSW 7.4 km/h 7.4 km/h 43 % 0.0 mm
13:04 13.5 °C 1.2 °C 1003.9 hPa NW 13.0 km/h 13.0 km/h 43 % 0.0 mm
13:09 13.4 °C 0.4 °C 1003.9 hPa ENE 16.1 km/h 16.1 km/h 41 % 0.0 mm
13:14 13.2 °C 0.2 °C 1002.9 hPa WNW 16.1 km/h 16.1 km/h 41 % 0.0 mm
13:19 13.2 °C 0.2 °C 1002.9 hPa West 9.3 km/h 9.3 km/h 41 % 0.0 mm
13:24 13.5 °C 0.5 °C 1002.9 hPa SW 5.6 km/h 5.6 km/h 41 % 0.0 mm
13:29 13.6 °C 0.6 °C 1002.9 hPa WSW 11.1 km/h 11.1 km/h 41 % 0.0 mm
13:34 13.8 °C 0.4 °C 1002.9 hPa WSW 13.0 km/h 13.0 km/h 40 % 0.0 mm
13:39 13.6 °C 0.2 °C 1002.9 hPa SW 9.3 km/h 9.3 km/h 40 % 0.0 mm
13:44 14.0 °C 0.6 °C 1002.9 hPa WSW 9.3 km/h 9.3 km/h 40 % 0.0 mm
13:49 14.2 °C 0.8 °C 1002.9 hPa WSW 9.3 km/h 9.3 km/h 40 % 0.0 mm
13:54 14.1 °C 0.3 °C 1002.9 hPa SW 11.1 km/h 11.1 km/h 39 % 0.0 mm
13:59 14.1 °C 0.0 °C 1002.9 hPa SW 18.5 km/h 18.5 km/h 38 % 0.0 mm
14:05 14.1 °C 0.3 °C 1002.9 hPa WSW 9.7 km/h 19.3 km/h 39 % 0.0 mm
14:10 14.3 °C 0.5 °C 1002.9 hPa West 9.3 km/h 9.3 km/h 39 % 0.0 mm
14:15 14.6 °C 0.8 °C 1002.9 hPa WNW 11.1 km/h 11.1 km/h 39 % 0.0 mm
14:20 14.5 °C 0.7 °C 1002.9 hPa West 9.7 km/h 16.1 km/h 39 % 0.0 mm
14:25 14.6 °C 0.8 °C 1002.9 hPa SSE 12.6 km/h 12.6 km/h 39 % 0.0 mm
14:30 14.5 °C 0.7 °C 1002.9 hPa South 20.4 km/h 20.4 km/h 39 % 0.0 mm
14:35 14.7 °C 0.5 °C 1002.9 hPa SW 18.5 km/h 18.5 km/h 38 % 0.0 mm
14:40 14.6 °C 0.4 °C 1002.9 hPa West 11.4 km/h 11.4 km/h 38 % 0.0 mm
14:45 14.6 °C 0.4 °C 1002.9 hPa WSW 18.5 km/h 18.5 km/h 38 % 0.0 mm
14:50 14.8 °C 0.6 °C 1002.9 hPa WSW 14.8 km/h 14.8 km/h 38 % 0.0 mm
14:55 14.8 °C 0.6 °C 1002.9 hPa WNW 20.4 km/h 20.4 km/h 38 % 0.0 mm
15:00 14.8 °C 0.6 °C 1002.9 hPa WSW 14.8 km/h 14.8 km/h 38 % 0.0 mm
15:05 14.7 °C 0.5 °C 1002.9 hPa WSW 11.1 km/h 11.1 km/h 38 % 0.0 mm
15:10 14.8 °C 0.6 °C 1002.9 hPa West 14.8 km/h 14.8 km/h 38 % 0.0 mm
15:15 14.8 °C 0.6 °C 1002.9 hPa West 16.7 km/h 16.7 km/h 38 % 0.0 mm
15:20 14.8 °C 0.6 °C 1002.9 hPa WSW 16.7 km/h 16.7 km/h 38 % 0.0 mm
15:25 15.1 °C 0.9 °C 1002.9 hPa WSW 11.1 km/h 11.1 km/h 38 % 0.0 mm
15:30 15.6 °C 1.7 °C 1002.9 hPa NW 9.3 km/h 9.3 km/h 39 % 0.0 mm
15:35 15.6 °C 1.3 °C 1002.9 hPa SW 9.3 km/h 9.3 km/h 38 % 0.0 mm
15:40 15.7 °C 1.4 °C 1002.9 hPa WNW 13.0 km/h 13.0 km/h 38 % 0.0 mm
15:50 15.6 °C 0.9 °C 1002.9 hPa WSW 14.8 km/h 14.8 km/h 37 % 0.0 mm
15:55 15.5 °C 0.8 °C 1002.9 hPa WSW 9.3 km/h 9.3 km/h 37 % 0.0 mm
16:00 15.9 °C 1.2 °C 1002.9 hPa West 9.3 km/h 9.3 km/h 37 % 0.0 mm
16:10 15.8 °C 1.1 °C 1002.9 hPa SW 9.3 km/h 9.3 km/h 37 % 0.0 mm
16:15 16.3 °C 1.6 °C 1002.9 hPa SW 5.6 km/h 5.6 km/h 37 % 0.0 mm
16:20 16.2 °C 1.1 °C 1002.9 hPa West 18.5 km/h 18.5 km/h 36 % 0.0 mm
16:30 15.7 °C 0.7 °C 1002.9 hPa WSW 11.1 km/h 11.1 km/h 36 % 0.0 mm
16:35 15.7 °C 0.7 °C 1002.9 hPa SSW 11.1 km/h 11.1 km/h 36 % 0.0 mm
16:40 15.5 °C 0.5 °C 1002.9 hPa WSW 7.4 km/h 7.4 km/h 36 % 0.0 mm
16:45 15.5 °C 0.1 °C 1002.9 hPa WNW 13.0 km/h 13.0 km/h 35 % 0.0 mm
16:50 15.3 °C -0.1 °C 1002.9 hPa SW 7.4 km/h 7.4 km/h 35 % 0.0 mm
16:55 15.1 °C -0.3 °C 1002.9 hPa SW 14.8 km/h 14.8 km/h 35 % 0.0 mm
17:00 15.4 °C 0.0 °C 1002.9 hPa WSW 13.0 km/h 13.0 km/h 35 % 0.0 mm
17:05 15.4 °C 0.0 °C 1002.9 hPa West 5.6 km/h 5.6 km/h 35 % 0.0 mm
17:10 15.6 °C 0.6 °C 1002.9 hPa WSW 5.8 km/h 5.8 km/h 36 % 0.0 mm
17:15 15.4 °C 0.0 °C 1002.9 hPa SSW 9.5 km/h 9.5 km/h 35 % 0.0 mm
17:20 15.0 °C -0.3 °C 1002.9 hPa WSW 18.5 km/h 18.5 km/h 35 % 0.0 mm
17:25 14.9 °C -0.4 °C 1002.9 hPa WNW 7.4 km/h 7.4 km/h 35 % 0.0 mm
17:30 14.7 °C -0.6 °C 1002.9 hPa WSW 14.8 km/h 14.8 km/h 35 % 0.0 mm
17:35 14.6 °C -0.7 °C 1002.9 hPa SW 6.1 km/h 6.1 km/h 35 % 0.0 mm
17:40 14.4 °C -0.9 °C 1002.9 hPa West 9.3 km/h 9.3 km/h 35 % 0.0 mm
17:45 14.3 °C -1.0 °C 1003.9 hPa South 13.0 km/h 13.0 km/h 35 % 0.0 mm
17:50 14.1 °C -0.8 °C 1003.9 hPa SW 3.7 km/h 3.7 km/h 36 % 0.0 mm
17:55 14.3 °C -0.6 °C 1003.9 hPa SW 5.6 km/h 5.6 km/h 36 % 0.0 mm
18:00 14.3 °C -0.6 °C 1003.9 hPa West 1.9 km/h   36 % 0.0 mm
18:05 14.2 °C -0.7 °C 1003.9 hPa WSW 5.6 km/h 5.6 km/h 36 % 0.0 mm
18:10 13.9 °C -0.9 °C 1003.9 hPa WSW 5.6 km/h 5.6 km/h 36 % 0.0 mm
18:15 13.7 °C -1.1 °C 1003.9 hPa West 22.2 km/h 22.2 km/h 36 % 0.0 mm
18:20 13.2 °C -1.9 °C 1003.9 hPa WSW 7.4 km/h 7.4 km/h 35 % 0.0 mm
18:25 13.0 °C -2.1 °C 1003.9 hPa WSW 7.9 km/h 7.9 km/h 35 % 0.0 mm
18:30 12.7 °C -2.4 °C 1002.9 hPa West 9.3 km/h 9.3 km/h 35 % 0.0 mm
18:35 12.5 °C -2.2 °C 1002.9 hPa WSW 9.3 km/h 9.3 km/h 36 % 0.0 mm
18:40 12.4 °C -2.3 °C 1002.9 hPa North 9.3 km/h 9.3 km/h 36 % 0.0 mm
18:45 12.2 °C -2.4 °C 1003.9 hPa WSW 7.4 km/h 7.4 km/h 36 % 0.0 mm
18:50 11.9 °C -2.7 °C 1003.9 hPa ENE 7.4 km/h 7.4 km/h 36 % 0.0 mm
18:55 11.8 °C -2.4 °C 1003.9 hPa West 7.4 km/h 7.9 km/h 37 % 0.0 mm
19:00 11.6 °C -2.6 °C 1003.9 hPa SW 9.3 km/h 9.3 km/h 37 % 0.0 mm
19:05 11.5 °C -2.7 °C 1003.9 hPa SW 5.6 km/h 5.6 km/h 37 % 0.0 mm
19:10 11.4 °C -2.4 °C 1003.9 hPa SW 5.6 km/h 5.6 km/h 38 % 0.0 mm
19:15 11.3 °C -2.5 °C 1003.9 hPa West 5.6 km/h 5.6 km/h 38 % 0.0 mm
19:20 11.1 °C -2.7 °C 1003.9 hPa WSW 7.4 km/h 7.4 km/h 38 % 0.0 mm
19:25 11.0 °C -2.8 °C 1003.9 hPa WSW 3.7 km/h 3.7 km/h 38 % 0.0 mm
19:30 11.0 °C -2.8 °C 1003.9 hPa West 5.6 km/h 5.6 km/h 38 % 0.0 mm
19:35 10.8 °C -2.6 °C 1003.9 hPa WSW 5.6 km/h 5.6 km/h 39 % 0.0 mm
19:40 10.7 °C -2.7 °C 1003.9 hPa West 5.3 km/h 5.3 km/h 39 % 0.0 mm
19:45 10.6 °C -2.8 °C 1005.0 hPa West 5.6 km/h 5.6 km/h 39 % 0.0 mm
19:50 10.5 °C -2.9 °C 1005.0 hPa West 7.4 km/h 7.4 km/h 39 % 0.0 mm
19:55 10.5 °C -2.6 °C 1005.0 hPa West 9.7 km/h 10.0 km/h 40 % 0.0 mm
20:00 10.5 °C -2.6 °C 1003.9 hPa WSW 7.4 km/h 7.4 km/h 40 % 0.0 mm
20:05 10.4 °C -2.7 °C 1003.9 hPa WNW 5.6 km/h 5.6 km/h 40 % 0.0 mm
20:10 10.4 °C -2.3 °C 1003.9 hPa WSW 9.3 km/h 9.3 km/h 41 % 0.0 mm
20:15 10.4 °C -2.3 °C 1005.0 hPa SSW 16.7 km/h 16.7 km/h 41 % 0.0 mm
20:20 10.3 °C -2.4 °C 1005.0 hPa West 9.3 km/h 9.3 km/h 41 % 0.0 mm
20:25 10.2 °C -2.5 °C 1005.0 hPa West 9.3 km/h 9.3 km/h 41 % 0.0 mm
20:30 10.2 °C -2.5 °C 1005.0 hPa WSW 9.3 km/h 9.3 km/h 41 % 0.0 mm
20:35 10.2 °C -2.5 °C 1005.0 hPa WSW 9.3 km/h 9.3 km/h 41 % 0.0 mm
20:40 10.1 °C -2.6 °C 1005.0 hPa WSW 9.3 km/h 9.3 km/h 41 % 0.0 mm
20:45 10.1 °C -2.6 °C 1005.0 hPa WSW 10.0 km/h 10.0 km/h 41 % 0.0 mm
20:50 10.1 °C -2.9 °C 1005.0 hPa WSW 13.0 km/h 13.0 km/h 40 % 0.0 mm
20:55 10.0 °C -3.0 °C 1005.0 hPa WSW 7.4 km/h 7.4 km/h 40 % 0.0 mm
21:00 10.0 °C -3.0 °C 1005.0 hPa West 9.3 km/h 9.3 km/h 40 % 0.0 mm
21:05 9.9 °C -2.8 °C 1005.0 hPa West 11.1 km/h 11.1 km/h 41 % 0.0 mm
21:10 9.9 °C -2.8 °C 1005.0 hPa SSW 13.0 km/h 13.0 km/h 41 % 0.0 mm
21:15 9.9 °C -2.8 °C 1006.0 hPa WSW 9.3 km/h 9.3 km/h 41 % 0.0 mm
21:20 9.9 °C -2.8 °C 1006.0 hPa West 13.0 km/h 13.0 km/h 41 % 0.0 mm
21:25 9.8 °C -2.5 °C 1006.0 hPa WSW 9.3 km/h 9.5 km/h 42 % 0.0 mm
21:30 9.7 °C -2.6 °C 1005.0 hPa SW 14.8 km/h 14.8 km/h 42 % 0.0 mm
21:35 9.7 °C -2.6 °C 1005.0 hPa WSW 7.4 km/h 7.4 km/h 42 % 0.0 mm
21:40 9.6 °C -2.7 °C 1005.0 hPa SW 11.1 km/h 11.1 km/h 42 % 0.0 mm
21:50 9.5 °C -2.5 °C 1006.0 hPa WSW 9.3 km/h 9.3 km/h 43 % 0.0 mm
21:55 9.4 °C -2.6 °C 1006.0 hPa WSW 13.0 km/h 13.0 km/h 43 % 0.0 mm
22:00 9.3 °C -2.7 °C 1006.0 hPa SW 9.3 km/h 9.3 km/h 43 % 0.0 mm
22:05 9.2 °C -2.4 °C 1006.0 hPa West 9.3 km/h 9.3 km/h 44 % 0.0 mm
22:10 9.2 °C -2.4 °C 1006.0 hPa NW 13.0 km/h 13.0 km/h 44 % 0.0 mm
22:15 9.1 °C -2.6 °C 1006.0 hPa SW 11.9 km/h 11.9 km/h 44 % 0.0 mm
22:20 9.0 °C -2.6 °C 1006.0 hPa SW 9.3 km/h 9.3 km/h 44 % 0.0 mm
22:25 9.0 °C -2.6 °C 1006.0 hPa SW 5.6 km/h 6.9 km/h 44 % 0.0 mm
22:30 8.9 °C -2.7 °C 1005.0 hPa WSW 5.6 km/h 5.6 km/h 44 % 0.0 mm
22:35 8.8 °C -2.8 °C 1005.0 hPa SSW 8.7 km/h 8.7 km/h 44 % 0.0 mm
22:40 8.7 °C -2.6 °C 1005.0 hPa WSW 9.3 km/h 9.3 km/h 45 % 0.0 mm
22:45 8.6 °C -2.7 °C 1006.0 hPa ENE 9.3 km/h 9.3 km/h 45 % 0.0 mm
22:50 8.6 °C -2.7 °C 1006.0 hPa NNE 9.3 km/h 9.3 km/h 45 % 0.0 mm
22:55 8.5 °C -2.8 °C 1006.0 hPa WNW 2.3 km/h 2.3 km/h 45 % 0.0 mm
23:00 8.4 °C -2.9 °C 1006.0 hPa West 8.7 km/h 8.7 km/h 45 % 0.0 mm
23:05 8.4 °C -2.9 °C 1006.0 hPa SW 1.9 km/h 1.9 km/h 45 % 0.0 mm
23:10 8.3 °C -2.9 °C 1006.0 hPa SW 6.1 km/h 6.1 km/h 45 % 0.0 mm
23:15 8.2 °C -3.1 °C 1007.0 hPa West 6.1 km/h 6.1 km/h 45 % 0.0 mm
23:20 8.2 °C -3.1 °C 1007.0 hPa SW 3.7 km/h 3.7 km/h 45 % 0.0 mm
23:25 8.1 °C -3.1 °C 1007.0 hPa WSW 3.7 km/h 3.7 km/h 45 % 0.0 mm
23:30 8.1 °C -2.8 °C 1007.0 hPa WNW 5.6 km/h 5.6 km/h 46 % 0.0 mm
23:40 7.8 °C -3.1 °C 1007.0 hPa SW 1.9 km/h 1.9 km/h 46 % 0.0 mm
23:45 7.8 °C -3.1 °C 1006.0 hPa WNW 3.7 km/h 3.7 km/h 46 % 0.0 mm
Meteo Sesrovires
Elogis d' Weather Underground - 3.5 mb

Guio original per  Jim McMurry - jmcmurry@mwt.net Adaptat per a la plantilla per  Wim van der Kuil - Leuven-Template.eu

Trobareu la nostra informacio del temps tambe a:

Weather Underground

AWEKAS